sensor_id;sensor_type;location;lat;lon;timestamp;P1;durP1;ratioP1;P2;durP2;ratioP2
10705;SDS011;5404;42.656;23.336;2024-01-10T00:01:24;7.45;;;4.35;;
10705;SDS011;5404;42.656;23.336;2024-01-10T00:03:53;8.55;;;4.97;;
10705;SDS011;5404;42.656;23.336;2024-01-10T00:06:19;9.75;;;5.20;;
10705;SDS011;5404;42.656;23.336;2024-01-10T00:08:44;12.07;;;5.50;;
10705;SDS011;5404;42.656;23.336;2024-01-10T00:11:10;9.48;;;4.72;;
10705;SDS011;5404;42.656;23.336;2024-01-10T00:13:35;10.32;;;4.78;;
10705;SDS011;5404;42.656;23.336;2024-01-10T00:16:01;9.50;;;4.82;;
10705;SDS011;5404;42.656;23.336;2024-01-10T00:18:26;11.18;;;4.45;;
10705;SDS011;5404;42.656;23.336;2024-01-10T00:20:52;9.00;;;4.68;;
10705;SDS011;5404;42.656;23.336;2024-01-10T00:23:20;7.25;;;4.20;;
10705;SDS011;5404;42.656;23.336;2024-01-10T00:25:46;9.43;;;4.38;;
10705;SDS011;5404;42.656;23.336;2024-01-10T00:28:12;9.57;;;4.47;;
10705;SDS011;5404;42.656;23.336;2024-01-10T00:30:38;11.32;;;4.97;;
10705;SDS011;5404;42.656;23.336;2024-01-10T00:33:04;11.05;;;4.75;;
10705;SDS011;5404;42.656;23.336;2024-01-10T00:35:30;11.65;;;5.00;;
10705;SDS011;5404;42.656;23.336;2024-01-10T00:37:55;12.10;;;4.90;;
10705;SDS011;5404;42.656;23.336;2024-01-10T00:40:21;10.18;;;4.68;;
10705;SDS011;5404;42.656;23.336;2024-01-10T00:42:47;8.32;;;4.55;;
10705;SDS011;5404;42.656;23.336;2024-01-10T00:45:12;10.10;;;4.18;;
10705;SDS011;5404;42.656;23.336;2024-01-10T00:47:38;11.35;;;4.65;;
10705;SDS011;5404;42.656;23.336;2024-01-10T00:50:03;9.45;;;4.60;;
10705;SDS011;5404;42.656;23.336;2024-01-10T00:52:29;7.20;;;4.43;;
10705;SDS011;5404;42.656;23.336;2024-01-10T00:54:54;7.13;;;4.50;;
10705;SDS011;5404;42.656;23.336;2024-01-10T00:57:20;9.00;;;4.50;;
10705;SDS011;5404;42.656;23.336;2024-01-10T00:59:45;6.68;;;3.75;;
10705;SDS011;5404;42.656;23.336;2024-01-10T01:02:11;9.20;;;4.63;;
10705;SDS011;5404;42.656;23.336;2024-01-10T01:04:37;8.35;;;4.22;;
10705;SDS011;5404;42.656;23.336;2024-01-10T01:07:03;7.50;;;4.35;;
10705;SDS011;5404;42.656;23.336;2024-01-10T01:09:28;8.45;;;4.45;;
10705;SDS011;5404;42.656;23.336;2024-01-10T01:11:53;12.05;;;4.60;;
10705;SDS011;5404;42.656;23.336;2024-01-10T01:14:19;10.50;;;4.85;;
10705;SDS011;5404;42.656;23.336;2024-01-10T01:16:44;7.70;;;4.78;;
10705;SDS011;5404;42.656;23.336;2024-01-10T01:19:09;15.38;;;4.70;;
10705;SDS011;5404;42.656;23.336;2024-01-10T01:21:35;9.63;;;5.13;;
10705;SDS011;5404;42.656;23.336;2024-01-10T01:24:00;8.93;;;5.43;;
10705;SDS011;5404;42.656;23.336;2024-01-10T01:26:26;10.40;;;4.35;;
10705;SDS011;5404;42.656;23.336;2024-01-10T01:28:51;13.60;;;4.97;;
10705;SDS011;5404;42.656;23.336;2024-01-10T01:31:16;8.57;;;4.93;;
10705;SDS011;5404;42.656;23.336;2024-01-10T01:33:42;10.75;;;5.25;;
10705;SDS011;5404;42.656;23.336;2024-01-10T01:36:08;11.93;;;4.85;;
10705;SDS011;5404;42.656;23.336;2024-01-10T01:38:33;14.70;;;6.00;;
10705;SDS011;5404;42.656;23.336;2024-01-10T01:41:00;16.17;;;6.30;;
10705;SDS011;5404;42.656;23.336;2024-01-10T01:43:27;13.57;;;6.05;;
10705;SDS011;5404;42.656;23.336;2024-01-10T01:45:53;14.32;;;6.43;;
10705;SDS011;5404;42.656;23.336;2024-01-10T01:48:20;11.98;;;7.07;;
10705;SDS011;5404;42.656;23.336;2024-01-10T01:50:47;13.07;;;6.85;;
10705;SDS011;5404;42.656;23.336;2024-01-10T01:53:15;17.58;;;7.93;;
10705;SDS011;5404;42.656;23.336;2024-01-10T01:55:43;17.73;;;7.70;;
10705;SDS011;5404;42.656;23.336;2024-01-10T01:58:09;13.73;;;7.07;;
10705;SDS011;5404;42.656;23.336;2024-01-10T02:00:35;11.95;;;7.50;;
10705;SDS011;5404;42.656;23.336;2024-01-10T02:03:02;16.25;;;7.35;;
10705;SDS011;5404;42.656;23.336;2024-01-10T02:05:27;13.60;;;7.70;;
10705;SDS011;5404;42.656;23.336;2024-01-10T02:07:53;15.88;;;7.45;;
10705;SDS011;5404;42.656;23.336;2024-01-10T02:10:20;16.50;;;7.00;;
10705;SDS011;5404;42.656;23.336;2024-01-10T02:12:46;16.42;;;7.85;;
10705;SDS011;5404;42.656;23.336;2024-01-10T02:15:12;12.52;;;7.35;;
10705;SDS011;5404;42.656;23.336;2024-01-10T02:17:38;11.23;;;7.18;;
10705;SDS011;5404;42.656;23.336;2024-01-10T02:20:22;14.65;;;7.75;;
10705;SDS011;5404;42.656;23.336;2024-01-10T02:22:47;15.52;;;7.57;;
10705;SDS011;5404;42.656;23.336;2024-01-10T02:25:15;10.50;;;6.75;;
10705;SDS011;5404;42.656;23.336;2024-01-10T02:27:41;10.93;;;7.20;;
10705;SDS011;5404;42.656;23.336;2024-01-10T02:30:07;11.88;;;6.97;;
10705;SDS011;5404;42.656;23.336;2024-01-10T02:32:34;17.25;;;7.55;;
10705;SDS011;5404;42.656;23.336;2024-01-10T02:35:00;11.75;;;6.60;;
10705;SDS011;5404;42.656;23.336;2024-01-10T02:37:26;12.40;;;7.35;;
10705;SDS011;5404;42.656;23.336;2024-01-10T02:39:51;13.23;;;7.32;;
10705;SDS011;5404;42.656;23.336;2024-01-10T02:42:17;19.85;;;7.57;;
10705;SDS011;5404;42.656;23.336;2024-01-10T02:44:42;15.80;;;7.07;;
10705;SDS011;5404;42.656;23.336;2024-01-10T02:47:09;12.73;;;6.45;;
10705;SDS011;5404;42.656;23.336;2024-01-10T02:49:35;12.55;;;6.95;;
10705;SDS011;5404;42.656;23.336;2024-01-10T02:52:00;15.02;;;6.45;;
10705;SDS011;5404;42.656;23.336;2024-01-10T02:54:26;16.75;;;6.97;;
10705;SDS011;5404;42.656;23.336;2024-01-10T02:56:51;13.20;;;7.75;;
10705;SDS011;5404;42.656;23.336;2024-01-10T02:59:17;12.90;;;6.97;;
10705;SDS011;5404;42.656;23.336;2024-01-10T03:01:42;13.93;;;6.70;;
10705;SDS011;5404;42.656;23.336;2024-01-10T03:04:08;17.33;;;7.35;;
10705;SDS011;5404;42.656;23.336;2024-01-10T03:06:34;21.25;;;10.65;;
10705;SDS011;5404;42.656;23.336;2024-01-10T03:08:59;18.70;;;9.30;;
10705;SDS011;5404;42.656;23.336;2024-01-10T03:11:25;20.42;;;11.18;;
10705;SDS011;5404;42.656;23.336;2024-01-10T03:13:52;14.63;;;6.65;;
10705;SDS011;5404;42.656;23.336;2024-01-10T03:16:26;19.65;;;7.93;;
10705;SDS011;5404;42.656;23.336;2024-01-10T03:18:51;13.95;;;6.63;;
10705;SDS011;5404;42.656;23.336;2024-01-10T03:21:17;12.27;;;5.88;;
10705;SDS011;5404;42.656;23.336;2024-01-10T03:23:48;11.48;;;5.32;;
10705;SDS011;5404;42.656;23.336;2024-01-10T03:26:13;13.95;;;5.28;;
10705;SDS011;5404;42.656;23.336;2024-01-10T03:28:39;15.88;;;6.85;;
10705;SDS011;5404;42.656;23.336;2024-01-10T03:31:04;15.05;;;6.82;;
10705;SDS011;5404;42.656;23.336;2024-01-10T03:33:32;17.33;;;6.72;;
10705;SDS011;5404;42.656;23.336;2024-01-10T03:35:57;11.35;;;6.05;;
10705;SDS011;5404;42.656;23.336;2024-01-10T03:38:23;14.63;;;6.63;;
10705;SDS011;5404;42.656;23.336;2024-01-10T03:40:48;11.25;;;5.53;;
10705;SDS011;5404;42.656;23.336;2024-01-10T03:43:14;10.10;;;5.38;;
10705;SDS011;5404;42.656;23.336;2024-01-10T03:45:39;14.75;;;6.32;;
10705;SDS011;5404;42.656;23.336;2024-01-10T03:48:05;12.38;;;6.10;;
10705;SDS011;5404;42.656;23.336;2024-01-10T03:50:31;11.68;;;5.53;;
10705;SDS011;5404;42.656;23.336;2024-01-10T03:52:56;14.77;;;5.70;;
10705;SDS011;5404;42.656;23.336;2024-01-10T03:55:21;15.70;;;5.57;;
10705;SDS011;5404;42.656;23.336;2024-01-10T03:57:47;11.07;;;5.50;;
10705;SDS011;5404;42.656;23.336;2024-01-10T04:00:12;8.43;;;5.10;;
10705;SDS011;5404;42.656;23.336;2024-01-10T04:02:38;13.38;;;5.50;;
10705;SDS011;5404;42.656;23.336;2024-01-10T04:05:06;15.07;;;5.45;;
10705;SDS011;5404;42.656;23.336;2024-01-10T04:07:33;10.20;;;5.10;;
10705;SDS011;5404;42.656;23.336;2024-01-10T04:09:58;10.25;;;5.68;;
10705;SDS011;5404;42.656;23.336;2024-01-10T04:12:23;13.95;;;5.80;;
10705;SDS011;5404;42.656;23.336;2024-01-10T04:14:49;12.25;;;5.50;;
10705;SDS011;5404;42.656;23.336;2024-01-10T04:17:14;8.30;;;4.85;;
10705;SDS011;5404;42.656;23.336;2024-01-10T04:19:40;12.15;;;5.25;;
10705;SDS011;5404;42.656;23.336;2024-01-10T04:22:05;10.52;;;4.72;;
10705;SDS011;5404;42.656;23.336;2024-01-10T04:24:31;10.05;;;5.80;;
10705;SDS011;5404;42.656;23.336;2024-01-10T04:26:56;10.60;;;4.97;;
10705;SDS011;5404;42.656;23.336;2024-01-10T04:29:21;11.85;;;5.40;;
10705;SDS011;5404;42.656;23.336;2024-01-10T04:31:47;8.93;;;4.75;;
10705;SDS011;5404;42.656;23.336;2024-01-10T04:34:12;10.43;;;5.18;;
10705;SDS011;5404;42.656;23.336;2024-01-10T04:36:38;11.40;;;5.82;;
10705;SDS011;5404;42.656;23.336;2024-01-10T04:39:03;12.32;;;5.85;;
10705;SDS011;5404;42.656;23.336;2024-01-10T04:41:29;12.57;;;6.07;;
10705;SDS011;5404;42.656;23.336;2024-01-10T04:43:54;18.70;;;6.20;;
10705;SDS011;5404;42.656;23.336;2024-01-10T04:46:20;8.65;;;4.72;;
10705;SDS011;5404;42.656;23.336;2024-01-10T04:48:46;8.18;;;5.13;;
10705;SDS011;5404;42.656;23.336;2024-01-10T04:51:12;13.95;;;6.18;;
10705;SDS011;5404;42.656;23.336;2024-01-10T04:53:38;12.45;;;6.68;;
10705;SDS011;5404;42.656;23.336;2024-01-10T04:56:03;8.27;;;5.00;;
10705;SDS011;5404;42.656;23.336;2024-01-10T04:58:29;13.93;;;5.90;;
10705;SDS011;5404;42.656;23.336;2024-01-10T05:00:54;10.82;;;5.53;;
10705;SDS011;5404;42.656;23.336;2024-01-10T05:03:20;11.85;;;5.57;;
10705;SDS011;5404;42.656;23.336;2024-01-10T05:05:45;7.03;;;4.47;;
10705;SDS011;5404;42.656;23.336;2024-01-10T05:08:10;10.45;;;5.43;;
10705;SDS011;5404;42.656;23.336;2024-01-10T05:10:36;9.35;;;4.60;;
10705;SDS011;5404;42.656;23.336;2024-01-10T05:13:01;11.40;;;5.50;;
10705;SDS011;5404;42.656;23.336;2024-01-10T05:15:27;14.43;;;6.75;;
10705;SDS011;5404;42.656;23.336;2024-01-10T05:17:53;27.63;;;6.75;;
10705;SDS011;5404;42.656;23.336;2024-01-10T05:20:18;9.43;;;5.43;;
10705;SDS011;5404;42.656;23.336;2024-01-10T05:22:44;19.30;;;7.55;;
10705;SDS011;5404;42.656;23.336;2024-01-10T05:25:09;11.95;;;6.30;;
10705;SDS011;5404;42.656;23.336;2024-01-10T05:27:35;10.75;;;5.28;;
10705;SDS011;5404;42.656;23.336;2024-01-10T05:30:00;8.07;;;4.85;;
10705;SDS011;5404;42.656;23.336;2024-01-10T05:32:26;10.63;;;4.85;;
10705;SDS011;5404;42.656;23.336;2024-01-10T05:34:52;13.23;;;5.53;;
10705;SDS011;5404;42.656;23.336;2024-01-10T05:37:18;8.45;;;5.45;;
10705;SDS011;5404;42.656;23.336;2024-01-10T05:39:44;11.13;;;5.88;;
10705;SDS011;5404;42.656;23.336;2024-01-10T05:42:09;8.68;;;5.22;;
10705;SDS011;5404;42.656;23.336;2024-01-10T05:44:36;13.10;;;5.88;;
10705;SDS011;5404;42.656;23.336;2024-01-10T05:47:01;15.27;;;6.38;;
10705;SDS011;5404;42.656;23.336;2024-01-10T05:49:27;21.75;;;6.57;;
10705;SDS011;5404;42.656;23.336;2024-01-10T05:51:53;10.82;;;5.22;;
10705;SDS011;5404;42.656;23.336;2024-01-10T05:54:19;10.45;;;5.75;;
10705;SDS011;5404;42.656;23.336;2024-01-10T05:56:44;12.77;;;5.70;;
10705;SDS011;5404;42.656;23.336;2024-01-10T05:59:09;13.55;;;6.00;;
10705;SDS011;5404;42.656;23.336;2024-01-10T06:01:37;14.73;;;6.50;;
10705;SDS011;5404;42.656;23.336;2024-01-10T06:04:03;11.00;;;6.45;;
10705;SDS011;5404;42.656;23.336;2024-01-10T06:06:29;20.88;;;6.70;;
10705;SDS011;5404;42.656;23.336;2024-01-10T06:08:55;11.18;;;6.65;;
10705;SDS011;5404;42.656;23.336;2024-01-10T06:11:20;15.00;;;6.78;;
10705;SDS011;5404;42.656;23.336;2024-01-10T06:13:46;10.73;;;6.03;;
10705;SDS011;5404;42.656;23.336;2024-01-10T06:16:11;12.63;;;6.18;;
10705;SDS011;5404;42.656;23.336;2024-01-10T06:18:38;13.88;;;6.18;;
10705;SDS011;5404;42.656;23.336;2024-01-10T06:21:03;23.52;;;7.10;;
10705;SDS011;5404;42.656;23.336;2024-01-10T06:23:29;13.18;;;6.97;;
10705;SDS011;5404;42.656;23.336;2024-01-10T06:25:54;18.40;;;6.47;;
10705;SDS011;5404;42.656;23.336;2024-01-10T06:28:20;11.93;;;6.35;;
10705;SDS011;5404;42.656;23.336;2024-01-10T06:30:46;16.77;;;6.68;;
10705;SDS011;5404;42.656;23.336;2024-01-10T06:33:12;14.85;;;6.28;;
10705;SDS011;5404;42.656;23.336;2024-01-10T06:35:37;12.93;;;5.95;;
10705;SDS011;5404;42.656;23.336;2024-01-10T06:38:03;13.05;;;6.18;;
10705;SDS011;5404;42.656;23.336;2024-01-10T06:40:29;14.38;;;7.25;;
10705;SDS011;5404;42.656;23.336;2024-01-10T06:42:55;17.98;;;8.18;;
10705;SDS011;5404;42.656;23.336;2024-01-10T06:45:20;16.48;;;7.85;;
10705;SDS011;5404;42.656;23.336;2024-01-10T06:47:45;20.13;;;7.55;;
10705;SDS011;5404;42.656;23.336;2024-01-10T06:50:11;30.02;;;7.00;;
10705;SDS011;5404;42.656;23.336;2024-01-10T06:52:36;24.08;;;7.28;;
10705;SDS011;5404;42.656;23.336;2024-01-10T06:55:02;15.95;;;7.30;;
10705;SDS011;5404;42.656;23.336;2024-01-10T06:57:29;17.02;;;6.53;;
10705;SDS011;5404;42.656;23.336;2024-01-10T06:59:54;9.98;;;5.85;;
10705;SDS011;5404;42.656;23.336;2024-01-10T07:02:20;12.88;;;5.00;;
10705;SDS011;5404;42.656;23.336;2024-01-10T07:04:45;14.80;;;6.03;;
10705;SDS011;5404;42.656;23.336;2024-01-10T07:07:13;7.47;;;4.73;;
10705;SDS011;5404;42.656;23.336;2024-01-10T07:09:39;8.88;;;5.38;;
10705;SDS011;5404;42.656;23.336;2024-01-10T07:12:06;9.98;;;5.55;;
10705;SDS011;5404;42.656;23.336;2024-01-10T07:14:32;20.05;;;6.00;;
10705;SDS011;5404;42.656;23.336;2024-01-10T07:16:57;15.73;;;5.22;;
10705;SDS011;5404;42.656;23.336;2024-01-10T07:19:23;8.32;;;4.75;;
10705;SDS011;5404;42.656;23.336;2024-01-10T07:21:49;19.63;;;6.00;;
10705;SDS011;5404;42.656;23.336;2024-01-10T07:24:15;13.25;;;5.47;;
10705;SDS011;5404;42.656;23.336;2024-01-10T07:26:40;19.52;;;5.50;;
10705;SDS011;5404;42.656;23.336;2024-01-10T07:29:06;17.50;;;7.18;;
10705;SDS011;5404;42.656;23.336;2024-01-10T07:31:33;13.98;;;6.68;;
10705;SDS011;5404;42.656;23.336;2024-01-10T07:34:01;15.82;;;6.28;;
10705;SDS011;5404;42.656;23.336;2024-01-10T07:36:30;19.40;;;7.55;;
10705;SDS011;5404;42.656;23.336;2024-01-10T07:38:58;15.68;;;7.30;;
10705;SDS011;5404;42.656;23.336;2024-01-10T07:41:24;18.50;;;7.82;;
10705;SDS011;5404;42.656;23.336;2024-01-10T07:43:50;14.07;;;6.28;;
10705;SDS011;5404;42.656;23.336;2024-01-10T07:46:15;23.42;;;9.30;;
10705;SDS011;5404;42.656;23.336;2024-01-10T07:48:40;25.67;;;8.52;;
10705;SDS011;5404;42.656;23.336;2024-01-10T07:51:06;22.55;;;7.95;;
10705;SDS011;5404;42.656;23.336;2024-01-10T07:53:31;23.77;;;7.50;;
10705;SDS011;5404;42.656;23.336;2024-01-10T07:55:57;12.98;;;6.30;;
10705;SDS011;5404;42.656;23.336;2024-01-10T07:58:22;12.40;;;6.43;;
10705;SDS011;5404;42.656;23.336;2024-01-10T08:00:48;17.42;;;6.68;;
10705;SDS011;5404;42.656;23.336;2024-01-10T08:03:13;11.95;;;5.45;;
10705;SDS011;5404;42.656;23.336;2024-01-10T08:05:39;17.02;;;5.38;;
10705;SDS011;5404;42.656;23.336;2024-01-10T08:08:04;13.55;;;5.85;;
10705;SDS011;5404;42.656;23.336;2024-01-10T08:10:30;13.40;;;5.53;;
10705;SDS011;5404;42.656;23.336;2024-01-10T08:12:55;13.57;;;5.00;;
10705;SDS011;5404;42.656;23.336;2024-01-10T08:15:21;9.27;;;5.50;;
10705;SDS011;5404;42.656;23.336;2024-01-10T08:17:47;7.70;;;4.50;;
10705;SDS011;5404;42.656;23.336;2024-01-10T08:20:14;12.02;;;4.97;;
10705;SDS011;5404;42.656;23.336;2024-01-10T08:22:44;10.98;;;4.50;;
10705;SDS011;5404;42.656;23.336;2024-01-10T08:25:09;10.38;;;4.40;;
10705;SDS011;5404;42.656;23.336;2024-01-10T08:27:35;6.03;;;3.80;;
10705;SDS011;5404;42.656;23.336;2024-01-10T08:30:02;11.20;;;5.03;;
10705;SDS011;5404;42.656;23.336;2024-01-10T08:32:29;12.98;;;5.65;;
10705;SDS011;5404;42.656;23.336;2024-01-10T08:34:55;11.18;;;5.63;;
10705;SDS011;5404;42.656;23.336;2024-01-10T08:37:20;15.95;;;5.32;;
10705;SDS011;5404;42.656;23.336;2024-01-10T08:39:46;10.60;;;4.82;;
10705;SDS011;5404;42.656;23.336;2024-01-10T08:42:12;27.55;;;8.88;;
10705;SDS011;5404;42.656;23.336;2024-01-10T08:44:37;10.07;;;4.22;;
10705;SDS011;5404;42.656;23.336;2024-01-10T08:47:03;13.50;;;4.90;;
10705;SDS011;5404;42.656;23.336;2024-01-10T08:49:28;9.20;;;4.18;;
10705;SDS011;5404;42.656;23.336;2024-01-10T08:51:54;9.10;;;4.82;;
10705;SDS011;5404;42.656;23.336;2024-01-10T08:54:19;12.18;;;5.30;;
10705;SDS011;5404;42.656;23.336;2024-01-10T08:56:48;14.63;;;5.60;;
10705;SDS011;5404;42.656;23.336;2024-01-10T08:59:14;11.50;;;5.40;;
10705;SDS011;5404;42.656;23.336;2024-01-10T09:01:39;9.98;;;5.07;;
10705;SDS011;5404;42.656;23.336;2024-01-10T09:04:05;11.80;;;5.60;;
10705;SDS011;5404;42.656;23.336;2024-01-10T09:06:31;13.07;;;5.35;;
10705;SDS011;5404;42.656;23.336;2024-01-10T09:08:57;11.43;;;5.20;;
10705;SDS011;5404;42.656;23.336;2024-01-10T09:11:22;13.07;;;5.10;;
10705;SDS011;5404;42.656;23.336;2024-01-10T09:13:47;16.50;;;5.95;;
10705;SDS011;5404;42.656;23.336;2024-01-10T09:16:14;11.93;;;6.07;;
10705;SDS011;5404;42.656;23.336;2024-01-10T09:18:40;11.60;;;5.60;;
10705;SDS011;5404;42.656;23.336;2024-01-10T09:21:05;14.77;;;6.35;;
10705;SDS011;5404;42.656;23.336;2024-01-10T09:23:31;11.50;;;5.40;;
10705;SDS011;5404;42.656;23.336;2024-01-10T09:25:56;12.98;;;5.63;;
10705;SDS011;5404;42.656;23.336;2024-01-10T09:28:22;10.98;;;5.78;;
10705;SDS011;5404;42.656;23.336;2024-01-10T09:30:48;12.95;;;5.85;;
10705;SDS011;5404;42.656;23.336;2024-01-10T09:33:14;11.45;;;6.63;;
10705;SDS011;5404;42.656;23.336;2024-01-10T09:35:39;19.13;;;7.13;;
10705;SDS011;5404;42.656;23.336;2024-01-10T09:38:04;17.20;;;7.05;;
10705;SDS011;5404;42.656;23.336;2024-01-10T09:40:30;15.57;;;7.32;;
10705;SDS011;5404;42.656;23.336;2024-01-10T09:42:56;12.38;;;6.22;;
10705;SDS011;5404;42.656;23.336;2024-01-10T09:45:21;11.10;;;6.18;;
10705;SDS011;5404;42.656;23.336;2024-01-10T09:47:50;13.10;;;6.93;;
10705;SDS011;5404;42.656;23.336;2024-01-10T09:50:19;12.90;;;6.15;;
10705;SDS011;5404;42.656;23.336;2024-01-10T09:52:50;14.13;;;6.75;;
10705;SDS011;5404;42.656;23.336;2024-01-10T09:55:17;17.88;;;6.85;;
10705;SDS011;5404;42.656;23.336;2024-01-10T09:57:51;10.98;;;6.35;;
10705;SDS011;5404;42.656;23.336;2024-01-10T10:00:17;16.13;;;7.75;;
10705;SDS011;5404;42.656;23.336;2024-01-10T10:02:43;17.15;;;7.15;;
10705;SDS011;5404;42.656;23.336;2024-01-10T10:05:15;13.80;;;6.95;;
10705;SDS011;5404;42.656;23.336;2024-01-10T10:10:11;23.83;;;6.25;;
10705;SDS011;5404;42.656;23.336;2024-01-10T10:12:52;13.50;;;7.30;;
10705;SDS011;5404;42.656;23.336;2024-01-10T10:15:20;15.43;;;6.53;;
10705;SDS011;5404;42.656;23.336;2024-01-10T10:17:48;17.25;;;7.90;;
10705;SDS011;5404;42.656;23.336;2024-01-10T10:20:21;16.73;;;7.65;;
10705;SDS011;5404;42.656;23.336;2024-01-10T10:23:07;10.27;;;6.47;;
10705;SDS011;5404;42.656;23.336;2024-01-10T10:25:44;15.57;;;7.45;;
10705;SDS011;5404;42.656;23.336;2024-01-10T10:28:10;17.52;;;8.05;;
10705;SDS011;5404;42.656;23.336;2024-01-10T10:30:35;18.65;;;7.85;;
10705;SDS011;5404;42.656;23.336;2024-01-10T10:33:01;16.55;;;8.10;;
10705;SDS011;5404;42.656;23.336;2024-01-10T10:35:28;14.88;;;8.23;;
10705;SDS011;5404;42.656;23.336;2024-01-10T10:37:53;33.58;;;17.10;;
10705;SDS011;5404;42.656;23.336;2024-01-10T10:40:19;16.90;;;8.50;;
10705;SDS011;5404;42.656;23.336;2024-01-10T10:42:46;17.58;;;7.75;;
10705;SDS011;5404;42.656;23.336;2024-01-10T10:45:22;17.08;;;8.70;;
10705;SDS011;5404;42.656;23.336;2024-01-10T10:47:58;34.15;;;14.93;;
10705;SDS011;5404;42.656;23.336;2024-01-10T10:50:28;13.98;;;8.93;;
10705;SDS011;5404;42.656;23.336;2024-01-10T10:52:57;34.47;;;14.25;;
10705;SDS011;5404;42.656;23.336;2024-01-10T10:55:25;20.38;;;8.40;;
10705;SDS011;5404;42.656;23.336;2024-01-10T10:57:51;18.63;;;9.18;;
10705;SDS011;5404;42.656;23.336;2024-01-10T11:00:19;18.35;;;8.05;;
10705;SDS011;5404;42.656;23.336;2024-01-10T11:02:47;16.73;;;8.23;;
10705;SDS011;5404;42.656;23.336;2024-01-10T11:05:13;17.40;;;8.57;;
10705;SDS011;5404;42.656;23.336;2024-01-10T11:07:39;17.00;;;8.50;;
10705;SDS011;5404;42.656;23.336;2024-01-10T11:10:08;17.30;;;8.17;;
10705;SDS011;5404;42.656;23.336;2024-01-10T11:15:14;13.73;;;7.22;;
10705;SDS011;5404;42.656;23.336;2024-01-10T11:23:46;22.73;;;8.85;;
10705;SDS011;5404;42.656;23.336;2024-01-10T11:26:15;23.95;;;9.25;;
10705;SDS011;5404;42.656;23.336;2024-01-10T11:28:41;28.67;;;10.30;;
10705;SDS011;5404;42.656;23.336;2024-01-10T11:31:07;28.42;;;11.30;;
10705;SDS011;5404;42.656;23.336;2024-01-10T11:33:39;24.00;;;10.50;;
10705;SDS011;5404;42.656;23.336;2024-01-10T11:41:21;26.60;;;11.30;;
10705;SDS011;5404;42.656;23.336;2024-01-10T11:46:41;23.77;;;10.20;;
10705;SDS011;5404;42.656;23.336;2024-01-10T11:49:11;25.25;;;10.20;;
10705;SDS011;5404;42.656;23.336;2024-01-10T11:51:41;33.17;;;11.60;;
10705;SDS011;5404;42.656;23.336;2024-01-10T11:54:07;29.30;;;11.83;;
10705;SDS011;5404;42.656;23.336;2024-01-10T11:56:40;25.58;;;11.60;;
10705;SDS011;5404;42.656;23.336;2024-01-10T11:59:07;25.40;;;11.40;;
10705;SDS011;5404;42.656;23.336;2024-01-10T12:01:35;25.75;;;11.45;;
10705;SDS011;5404;42.656;23.336;2024-01-10T12:04:02;26.98;;;12.10;;
10705;SDS011;5404;42.656;23.336;2024-01-10T12:06:28;31.48;;;12.05;;
10705;SDS011;5404;42.656;23.336;2024-01-10T12:08:55;25.13;;;11.50;;
10705;SDS011;5404;42.656;23.336;2024-01-10T12:11:20;22.48;;;10.73;;
10705;SDS011;5404;42.656;23.336;2024-01-10T12:13:46;24.98;;;11.57;;
10705;SDS011;5404;42.656;23.336;2024-01-10T12:16:13;22.70;;;11.55;;
10705;SDS011;5404;42.656;23.336;2024-01-10T12:18:39;28.23;;;11.75;;
10705;SDS011;5404;42.656;23.336;2024-01-10T12:21:05;31.38;;;13.23;;
10705;SDS011;5404;42.656;23.336;2024-01-10T12:23:31;34.40;;;13.75;;
10705;SDS011;5404;42.656;23.336;2024-01-10T12:25:56;37.75;;;12.80;;
10705;SDS011;5404;42.656;23.336;2024-01-10T12:28:30;26.15;;;11.82;;
10705;SDS011;5404;42.656;23.336;2024-01-10T12:30:55;25.23;;;11.25;;
10705;SDS011;5404;42.656;23.336;2024-01-10T12:33:22;30.63;;;12.35;;
10705;SDS011;5404;42.656;23.336;2024-01-10T12:36:04;30.15;;;12.48;;
10705;SDS011;5404;42.656;23.336;2024-01-10T12:38:34;35.65;;;11.70;;
10705;SDS011;5404;42.656;23.336;2024-01-10T12:41:02;30.00;;;12.95;;
10705;SDS011;5404;42.656;23.336;2024-01-10T12:43:29;29.95;;;12.88;;
10705;SDS011;5404;42.656;23.336;2024-01-10T12:46:07;31.00;;;14.00;;
10705;SDS011;5404;42.656;23.336;2024-01-10T12:48:40;36.97;;;15.82;;
10705;SDS011;5404;42.656;23.336;2024-01-10T12:51:07;34.10;;;13.52;;
10705;SDS011;5404;42.656;23.336;2024-01-10T12:53:33;44.55;;;17.25;;
10705;SDS011;5404;42.656;23.336;2024-01-10T12:56:06;39.78;;;17.95;;
10705;SDS011;5404;42.656;23.336;2024-01-10T12:58:33;34.80;;;17.35;;
10705;SDS011;5404;42.656;23.336;2024-01-10T13:01:01;33.00;;;14.55;;
10705;SDS011;5404;42.656;23.336;2024-01-10T13:03:29;99.65;;;35.95;;
10705;SDS011;5404;42.656;23.336;2024-01-10T13:05:55;68.50;;;25.55;;
10705;SDS011;5404;42.656;23.336;2024-01-10T13:08:20;47.00;;;17.10;;
10705;SDS011;5404;42.656;23.336;2024-01-10T13:10:46;30.05;;;12.75;;
10705;SDS011;5404;42.656;23.336;2024-01-10T13:13:12;43.45;;;13.50;;
10705;SDS011;5404;42.656;23.336;2024-01-10T13:15:38;28.10;;;13.50;;
10705;SDS011;5404;42.656;23.336;2024-01-10T13:18:04;34.08;;;13.25;;
10705;SDS011;5404;42.656;23.336;2024-01-10T13:20:29;31.42;;;13.50;;
10705;SDS011;5404;42.656;23.336;2024-01-10T13:22:54;37.55;;;13.95;;
10705;SDS011;5404;42.656;23.336;2024-01-10T13:25:20;36.35;;;14.25;;
10705;SDS011;5404;42.656;23.336;2024-01-10T13:27:52;31.55;;;12.80;;
10705;SDS011;5404;42.656;23.336;2024-01-10T13:30:18;36.08;;;14.13;;
10705;SDS011;5404;42.656;23.336;2024-01-10T13:32:44;33.95;;;14.88;;
10705;SDS011;5404;42.656;23.336;2024-01-10T13:35:11;34.17;;;15.95;;
10705;SDS011;5404;42.656;23.336;2024-01-10T13:37:38;35.78;;;14.07;;
10705;SDS011;5404;42.656;23.336;2024-01-10T13:40:04;47.25;;;16.65;;
10705;SDS011;5404;42.656;23.336;2024-01-10T13:42:32;34.10;;;15.40;;
10705;SDS011;5404;42.656;23.336;2024-01-10T13:44:57;39.95;;;15.20;;
10705;SDS011;5404;42.656;23.336;2024-01-10T13:47:23;46.28;;;16.42;;
10705;SDS011;5404;42.656;23.336;2024-01-10T13:49:48;33.40;;;13.98;;
10705;SDS011;5404;42.656;23.336;2024-01-10T13:52:14;36.22;;;15.75;;
10705;SDS011;5404;42.656;23.336;2024-01-10T13:54:39;36.85;;;14.73;;
10705;SDS011;5404;42.656;23.336;2024-01-10T13:57:05;37.63;;;15.27;;
10705;SDS011;5404;42.656;23.336;2024-01-10T13:59:30;38.50;;;14.98;;
10705;SDS011;5404;42.656;23.336;2024-01-10T14:01:56;33.13;;;15.57;;
10705;SDS011;5404;42.656;23.336;2024-01-10T14:04:23;41.55;;;16.75;;
10705;SDS011;5404;42.656;23.336;2024-01-10T14:06:48;40.30;;;15.65;;
10705;SDS011;5404;42.656;23.336;2024-01-10T14:09:15;44.40;;;15.75;;
10705;SDS011;5404;42.656;23.336;2024-01-10T14:11:42;48.55;;;16.17;;
10705;SDS011;5404;42.656;23.336;2024-01-10T14:14:11;42.90;;;15.48;;
10705;SDS011;5404;42.656;23.336;2024-01-10T14:16:36;41.05;;;15.65;;
10705;SDS011;5404;42.656;23.336;2024-01-10T14:19:02;33.13;;;16.35;;
10705;SDS011;5404;42.656;23.336;2024-01-10T14:21:27;38.22;;;15.77;;
10705;SDS011;5404;42.656;23.336;2024-01-10T14:23:53;43.83;;;16.88;;
10705;SDS011;5404;42.656;23.336;2024-01-10T14:26:18;40.22;;;15.65;;
10705;SDS011;5404;42.656;23.336;2024-01-10T14:28:44;34.63;;;15.43;;
10705;SDS011;5404;42.656;23.336;2024-01-10T14:31:09;34.63;;;17.73;;
10705;SDS011;5404;42.656;23.336;2024-01-10T14:33:38;31.73;;;16.73;;
10705;SDS011;5404;42.656;23.336;2024-01-10T14:36:04;39.83;;;17.15;;
10705;SDS011;5404;42.656;23.336;2024-01-10T14:38:30;50.53;;;16.20;;
10705;SDS011;5404;42.656;23.336;2024-01-10T14:40:55;49.75;;;16.50;;
10705;SDS011;5404;42.656;23.336;2024-01-10T14:43:21;40.15;;;16.67;;
10705;SDS011;5404;42.656;23.336;2024-01-10T14:45:46;47.30;;;18.25;;
10705;SDS011;5404;42.656;23.336;2024-01-10T14:48:11;49.60;;;17.48;;